Time;durP1;ratioP1;P1;durP2;ratioP2;P2;SDS_P1;SDS_P2;PMS_P1;PMS_P2;Temp;Humidity;BMP_temperature;BMP_pressure;BME280_temperature;BME280_humidity;BME280_pressure;Samples;Min_cycle;Max_cycle;Signal;HPM_P1;HPM_P2
2022/09/04 00:00:14;;;;;;;3.05;2.20;;;16.30;99.90;;;;;;5071359;28;20056;-45
2022/09/04 00:02:58;;;;;;;1.75;1.60;;;16.30;99.90;;;;;;5070893;28;20113;-46
2022/09/04 00:05:34;;;;;;;1.83;1.67;;;16.30;99.90;;;;;;5071222;28;20529;-43
2022/09/04 00:08:32;;;;;;;3.28;2.33;;;16.30;99.90;;;;;;5071150;28;20024;-42
2022/09/04 00:11:14;;;;;;;3.10;2.03;;;16.30;99.90;;;;;;5071249;28;20032;-43
2022/09/04 00:14:05;;;;;;;3.47;2.00;;;16.20;99.90;;;;;;5070632;28;20341;-44
2022/09/04 00:16:57;;;;;;;2.25;2.08;;;16.20;99.90;;;;;;5071139;28;20029;-44
2022/09/04 00:19:52;;;;;;;1.75;1.65;;;16.20;99.90;;;;;;5071115;28;20442;-46
2022/09/04 00:22:26;;;;;;;2.30;2.10;;;16.30;99.90;;;;;;5074580;28;20021;-43
2022/09/04 00:25:21;;;;;;;2.65;2.45;;;16.30;99.90;;;;;;5074813;28;20025;-43
2022/09/04 00:27:52;;;;;;;4.82;2.72;;;16.30;99.90;;;;;;5063806;28;20404;-43
2022/09/04 00:30:20;;;;;;;2.72;2.53;;;16.20;99.90;;;;;;5074598;28;20458;-47
2022/09/04 00:32:56;;;;;;;4.25;2.17;;;16.20;99.90;;;;;;5074180;28;20510;-49
2022/09/04 00:35:30;;;;;;;2.80;2.35;;;16.10;99.90;;;;;;5074872;28;20025;-43
2022/09/04 00:38:14;;;;;;;2.30;1.85;;;16.10;99.90;;;;;;5074704;28;20039;-45
2022/09/04 00:41:22;;;;;;;2.20;2.00;;;16.00;99.90;;;;;;5074398;28;20039;-45
2022/09/04 00:44:24;;;;;;;2.92;2.63;;;15.90;99.90;;;;;;5063083;28;20041;-46
2022/09/04 00:47:08;;;;;;;1.92;1.75;;;15.80;99.90;;;;;;5049352;28;20500;-44
2022/09/04 00:50:05;;;;;;;3.70;2.55;;;15.80;99.90;;;;;;5074333;28;20020;-46
2022/09/04 00:53:01;;;;;;;3.33;2.20;;;15.80;99.90;;;;;;5073885;28;20036;-42
2022/09/04 00:55:39;;;;;;;3.25;1.85;;;15.80;99.90;;;;;;5074237;28;20024;-43
2022/09/04 00:58:35;;;;;;;2.40;2.20;;;15.80;99.90;;;;;;5073505;28;20033;-42
2022/09/04 01:01:01;;;;;;;;;;;15.80;99.90;;;;;;5074572;28;20025;-47
2022/09/04 01:03:36;;;;;;;2.90;1.85;;;15.80;99.90;;;;;;5073807;28;19912;-42
2022/09/04 01:06:25;;;;;;;4.90;2.22;;;15.90;99.90;;;;;;5074147;28;20025;-44
2022/09/04 01:09:02;;;;;;;2.85;2.58;;;15.90;99.90;;;;;;5074203;28;20488;-44
2022/09/04 01:11:46;;;;;;;2.20;2.10;;;15.90;99.90;;;;;;5074322;28;20024;-41
2022/09/04 01:14:40;;;;;;;2.70;2.13;;;15.90;99.90;;;;;;5073541;28;20054;-44
2022/09/04 01:17:28;;;;;;;2.42;1.73;;;15.90;99.90;;;;;;5074162;28;20047;-42
2022/09/04 01:20:31;;;;;;;1.98;1.88;;;15.80;99.90;;;;;;5073902;28;20021;-42
2022/09/04 01:23:26;;;;;;;2.08;1.88;;;15.80;99.90;;;;;;5073590;28;20028;-44
2022/09/04 01:26:01;;;;;;;2.15;1.88;;;15.70;99.90;;;;;;5073780;28;20054;-41
2022/09/04 01:28:35;;;;;;;2.03;1.73;;;15.70;99.90;;;;;;5073622;28;20027;-48
2022/09/04 01:31:12;;;;;;;5.18;2.15;;;15.70;99.90;;;;;;5055087;28;20025;-43
2022/09/04 01:33:52;;;;;;;3.33;2.42;;;15.70;99.90;;;;;;5073091;28;20029;-44
2022/09/04 01:36:42;;;;;;;1.77;1.67;;;15.80;99.90;;;;;;5073497;28;20395;-43
2022/09/04 01:39:07;;;;;;;1.65;1.55;;;15.80;99.90;;;;;;5073339;28;20029;-45
2022/09/04 01:41:59;;;;;;;3.42;1.60;;;15.80;99.90;;;;;;5073358;28;20522;-44
2022/09/04 01:44:25;;;;;;;3.95;1.88;;;15.90;99.90;;;;;;5073883;28;20071;-45
2022/09/04 01:47:18;;;;;;;2.55;2.17;;;15.90;99.90;;;;;;5073365;28;20047;-44
2022/09/04 01:50:14;;;;;;;3.38;2.15;;;15.90;99.90;;;;;;5073148;28;20035;-48
2022/09/04 01:53:11;;;;;;;2.15;1.63;;;15.90;99.90;;;;;;5072796;28;20066;-45
2022/09/04 01:56:11;;;;;;;5.47;1.95;;;16.00;99.90;;;;;;5044630;28;20411;-47
2022/09/04 01:58:46;;;;;;;2.10;1.75;;;16.10;99.90;;;;;;5072461;28;20024;-45
2022/09/04 02:01:21;;;;;;;2.33;1.67;;;16.10;99.90;;;;;;5072992;28;20116;-44
2022/09/04 02:04:06;;;;;;;3.65;1.83;;;16.20;99.90;;;;;;5072592;28;20031;-44
2022/09/04 02:06:50;;;;;;;1.98;1.88;;;16.20;99.90;;;;;;5073166;28;20048;-43
2022/09/04 02:09:40;;;;;;;4.32;2.15;;;16.30;99.90;;;;;;5072869;28;20029;-45
2022/09/04 02:12:36;;;;;;;4.00;2.30;;;16.20;99.90;;;;;;5072370;28;20097;-44
2022/09/04 02:15:22;;;;;;;2.22;2.03;;;16.20;99.90;;;;;;5072804;28;20096;-46
2022/09/04 02:18:13;;;;;;;2.63;1.75;;;16.20;99.90;;;;;;5072588;28;20111;-45
2022/09/04 02:20:51;;;;;;;2.15;1.95;;;16.20;99.90;;;;;;5072455;28;20031;-46
2022/09/04 02:23:44;;;;;;;1.85;1.75;;;16.30;99.90;;;;;;5072150;28;20174;-45
2022/09/04 02:26:14;;;;;;;2.35;2.15;;;16.30;99.90;;;;;;5072539;28;20020;-48
2022/09/04 02:28:51;;;;;;;2.70;1.88;;;16.30;99.90;;;;;;5072265;28;20024;-42
2022/09/04 02:31:37;;;;;;;2.83;1.98;;;16.30;99.90;;;;;;5072305;28;20029;-44
2022/09/04 02:34:25;;;;;;;1.75;1.65;;;16.30;99.90;;;;;;5072058;28;20541;-45
2022/09/04 02:37:15;;;;;;;1.77;1.67;;;16.20;99.90;;;;;;5072623;28;20098;-49
2022/09/04 02:39:49;;;;;;;2.78;1.92;;;16.20;99.90;;;;;;5071860;28;20020;-45
2022/09/04 02:42:56;;;;;;;1.85;1.63;;;16.20;99.90;;;;;;5071504;28;20549;-43
2022/09/04 02:45:35;;;;;;;2.05;1.50;;;16.20;99.90;;;;;;5072136;28;20029;-46
2022/09/04 02:48:18;;;;;;;1.85;1.52;;;16.30;99.90;;;;;;5072150;28;20158;-47
2022/09/04 02:51:12;;;;;;;1.98;1.80;;;16.30;99.90;;;;;;5072045;28;20029;-43
2022/09/04 02:54:13;;;;;;;3.38;1.50;;;16.30;99.90;;;;;;5071481;28;20036;-44
2022/09/04 02:57:08;;;;;;;2.95;1.92;;;16.40;99.90;;;;;;5071929;28;20505;-45
2022/09/04 02:59:46;;;;;;;2.63;1.42;;;16.40;99.90;;;;;;5034342;28;20101;-43
2022/09/04 03:02:24;;;;;;;1.73;1.63;;;16.40;99.90;;;;;;5071604;28;20025;-44
2022/09/04 03:05:08;;;;;;;6.22;1.73;;;16.40;99.90;;;;;;5071758;28;20044;-43
2022/09/04 03:07:43;;;;;;;5.22;1.83;;;16.40;99.90;;;;;;5071781;28;20052;-45
2022/09/04 03:10:17;;;;;;;3.15;2.17;;;16.40;99.90;;;;;;5071650;28;20039;-44
2022/09/04 03:12:58;;;;;;;2.80;2.00;;;16.40;99.90;;;;;;5071610;28;20478;-43
2022/09/04 03:15:34;;;;;;;5.78;1.75;;;16.30;99.90;;;;;;5071760;28;20040;-46
2022/09/04 03:18:02;;;;;;;5.50;3.35;;;16.30;99.90;;;;;;5071670;28;20025;-42
2022/09/04 03:20:35;;;;;;;2.47;2.08;;;16.30;99.90;;;;;;5071540;28;20446;-45
2022/09/04 03:23:14;;;;;;;2.25;2.05;;;16.20;99.90;;;;;;5071299;28;20441;-47
2022/09/04 03:26:16;;;;;;;2.20;2.00;;;16.20;99.90;;;;;;5072136;28;20020;-43
2022/09/04 03:28:48;;;;;;;2.65;2.33;;;16.20;99.90;;;;;;5071696;28;20036;-42
2022/09/04 03:31:47;;;;;;;3.22;2.17;;;16.20;99.90;;;;;;5071862;28;20459;-44
2022/09/04 03:34:31;;;;;;;5.75;2.17;;;16.20;99.90;;;;;;5072195;28;20031;-44
2022/09/04 03:37:17;;;;;;;1.98;1.65;;;16.30;99.90;;;;;;5072494;28;20029;-44
2022/09/04 03:40:07;;;;;;;1.80;1.70;;;16.30;99.90;;;;;;5072960;28;20029;-43
2022/09/04 03:43:10;;;;;;;1.85;1.75;;;16.30;99.90;;;;;;5071341;28;20017;-45
2022/09/04 03:46:13;;;;;;;2.35;2.15;;;16.30;99.90;;;;;;5071449;28;20024;-48
2022/09/04 03:49:06;;;;;;;3.78;2.00;;;16.30;99.90;;;;;;5071260;28;20017;-48
2022/09/04 03:51:50;;;;;;;5.97;1.77;;;16.40;99.90;;;;;;5071431;28;20507;-45
2022/09/04 03:54:46;;;;;;;2.88;1.90;;;16.40;99.90;;;;;;5075187;22;20041;-46
2022/09/04 03:57:28;;;;;;;2.00;1.90;;;16.40;99.90;;;;;;5073989;28;20408;-50
2022/09/04 04:00:06;;;;;;;3.60;2.47;;;16.40;99.90;;;;;;5075317;28;20039;-45
2022/09/04 04:02:37;;;;;;;3.50;2.33;;;16.40;99.90;;;;;;5075195;28;20017;-47
2022/09/04 04:05:26;;;;;;;12.65;3.83;;;16.40;99.90;;;;;;5075105;28;20024;-40
2022/09/04 04:08:00;;;;;;;5.30;3.40;;;16.40;99.90;;;;;;5075211;28;20395;-39
2022/09/04 04:10:38;;;;;;;9.68;4.13;;;16.40;99.90;;;;;;5075160;28;20025;-43
2022/09/04 04:13:32;;;;;;;18.27;7.53;;;16.50;99.90;;;;;;5074767;28;20031;-45
2022/09/04 04:16:10;;;;;;;28.08;7.78;;;16.50;99.90;;;;;;5074875;28;20029;-49
2022/09/04 04:18:47;;;;;;;44.47;10.13;;;16.60;99.90;;;;;;5075084;28;20021;-47
2022/09/04 04:21:37;;;;;;;37.53;11.82;;;16.50;99.90;;;;;;5075105;28;20025;-45
2022/09/04 04:24:28;;;;;;;44.00;11.68;;;16.50;99.90;;;;;;5057019;28;20024;-39
2022/09/04 04:27:39;;;;;;;38.00;12.07;;;16.50;99.90;;;;;;5075165;28;20411;-47
2022/09/04 04:30:08;;;;;;;34.95;11.43;;;16.50;99.90;;;;;;5076313;28;20024;-44
2022/09/04 04:32:59;;;;;;;22.92;7.65;;;16.50;99.90;;;;;;5075625;28;20021;-49
2022/09/04 04:35:53;;;;;;;35.92;9.38;;;16.40;99.90;;;;;;5075804;28;20029;-46
2022/09/04 04:38:43;;;;;;;51.08;12.73;;;16.40;99.90;;;;;;5076306;28;20099;-45
2022/09/04 04:41:26;;;;;;;34.03;12.27;;;16.40;99.90;;;;;;5075126;28;20079;-47
2022/09/04 04:44:02;;;;;;;60.28;14.65;;;16.40;99.90;;;;;;5074698;28;20514;-45
2022/09/04 04:46:37;;;;;;;57.75;16.38;;;16.40;99.90;;;;;;5074568;28;20070;-48
2022/09/04 04:49:27;;;;;;;73.75;16.52;;;16.40;99.90;;;;;;5074583;28;20020;-43
2022/09/04 04:52:10;;;;;;;98.90;17.83;;;16.40;99.90;;;;;;5074209;28;20023;-44
2022/09/04 04:55:09;;;;;;;67.18;18.95;;;16.30;99.90;;;;;;5074138;28;20039;-48
2022/09/04 04:58:06;;;;;;;61.97;14.82;;;16.30;99.90;;;;;;5073756;28;20021;-44
2022/09/04 05:00:40;;;;;;;74.70;17.50;;;16.30;99.90;;;;;;5074201;28;20111;-46
2022/09/04 05:03:33;;;;;;;57.22;16.55;;;16.30;99.90;;;;;;5074012;28;20064;-50
2022/09/04 05:06:16;;;;;;;71.88;16.25;;;16.30;99.90;;;;;;5073138;28;20012;-48
2022/09/04 05:08:54;;;;;;;104.07;15.68;;;16.30;99.90;;;;;;5073818;28;20025;-50
2022/09/04 05:11:43;;;;;;;85.60;18.90;;;16.30;99.90;;;;;;5074019;28;20468;-48
2022/09/04 05:14:28;;;;;;;70.85;15.02;;;16.30;99.90;;;;;;5073799;28;20395;-49
2022/09/04 05:17:22;;;;;;;107.50;16.80;;;16.30;99.90;;;;;;5074142;28;20100;-41
2022/09/04 05:19:48;;;;;;;91.47;17.85;;;16.40;99.90;;;;;;5073909;28;20630;-41
2022/09/04 05:22:23;;;;;;;68.13;15.85;;;16.40;99.90;;;;;;5073384;28;20111;-46
2022/09/04 05:25:06;;;;;;;53.67;15.45;;;16.40;99.90;;;;;;5074057;28;20405;-46
2022/09/04 05:27:55;;;;;;;51.40;15.35;;;16.40;99.90;;;;;;5073845;28;20482;-49
2022/09/04 05:30:50;;;;;;;39.25;14.23;;;16.40;99.90;;;;;;5055592;28;20032;-48
2022/09/04 05:33:50;;;;;;;40.50;16.70;;;16.50;99.90;;;;;;5073382;28;20349;-47
2022/09/04 05:36:39;;;;;;;37.30;14.80;;;16.50;99.90;;;;;;5073596;28;20031;-48
2022/09/04 05:39:16;;;;;;;54.10;15.98;;;16.50;99.90;;;;;;5073426;28;20075;-46
2022/09/04 05:42:08;;;;;;;39.75;14.68;;;16.40;99.90;;;;;;5055445;28;20132;-44
2022/09/04 05:44:56;;;;;;;36.03;15.57;;;16.50;99.90;;;;;;5055480;28;20021;-40
2022/09/04 05:47:44;;;;;;;42.75;15.77;;;16.50;99.90;;;;;;5073654;28;20095;-51
2022/09/04 05:50:18;;;;;;;33.35;16.33;;;16.60;99.90;;;;;;5073557;28;20123;-44
2022/09/04 05:53:09;;;;;;;30.85;15.27;;;16.70;99.90;;;;;;5073121;28;20127;-42
2022/09/04 05:55:58;;;;;;;34.20;16.30;;;16.70;99.90;;;;;;5073101;28;20032;-42
2022/09/04 05:58:29;;;;;;;29.77;15.60;;;16.80;99.90;;;;;;5072668;28;20495;-43
2022/09/04 06:01:37;;;;;;;35.25;17.50;;;16.80;99.90;;;;;;5073842;28;20057;-43
2022/09/04 06:04:13;;;;;;;29.55;15.98;;;16.90;99.90;;;;;;5073189;28;20390;-42
2022/09/04 06:06:55;;;;;;;31.88;16.27;;;16.80;99.90;;;;;;5073703;28;20029;-44
2022/09/04 06:09:58;;;;;;;29.70;15.38;;;16.90;99.90;;;;;;5073356;28;20044;-42
2022/09/04 06:12:40;;;;;;;34.95;18.45;;;16.90;99.90;;;;;;5073158;28;20534;-42
2022/09/04 06:15:18;;;;;;;33.40;18.42;;;16.90;99.90;;;;;;5073051;28;20120;-41
2022/09/04 06:18:04;;;;;;;33.45;16.50;;;17.00;99.90;;;;;;5073481;28;20605;-48
2022/09/04 06:20:36;;;;;;;30.35;16.58;;;17.00;99.90;;;;;;5073161;28;20020;-44
2022/09/04 06:23:07;;;;;;;31.27;16.25;;;17.10;99.90;;;;;;5073152;28;20028;-44
2022/09/04 06:25:51;;;;;;;29.85;15.85;;;17.10;99.90;;;;;;5073081;28;20029;-43
2022/09/04 06:28:25;;;;;;;33.95;16.42;;;17.10;99.90;;;;;;5072520;28;20072;-45
2022/09/04 06:30:57;;;;;;;27.55;15.77;;;17.10;99.90;;;;;;5073085;28;20028;-45
2022/09/04 06:33:53;;;;;;;35.90;16.23;;;17.10;99.90;;;;;;5072279;28;20032;-44
2022/09/04 06:36:28;;;;;;;;;;;17.10;99.90;;;;;;5073726;28;20531;-44
2022/09/04 06:39:21;;;;;;;32.38;15.20;;;17.10;99.90;;;;;;5072924;28;19904;-38
2022/09/04 06:42:20;;;;;;;29.77;15.48;;;17.20;99.90;;;;;;5072772;28;20132;-47
2022/09/04 06:45:02;;;;;;;23.45;13.00;;;17.30;99.90;;;;;;5072219;28;20025;-47
2022/09/04 06:47:35;;;;;;;25.98;13.88;;;17.20;99.90;;;;;;5072554;28;20017;-41
2022/09/04 06:50:29;;;;;;;21.08;13.52;;;17.10;99.90;;;;;;5072154;28;20043;-44
2022/09/04 06:53:20;;;;;;;21.55;12.50;;;17.20;99.90;;;;;;5071960;28;20103;-40
2022/09/04 06:56:05;;;;;;;19.60;11.07;;;17.10;99.90;;;;;;5072007;28;20035;-47
2022/09/04 06:58:54;;;;;;;17.42;10.80;;;17.20;99.90;;;;;;5072061;28;20520;-40
2022/09/04 07:01:39;;;;;;;13.27;8.25;;;17.20;99.90;;;;;;5072650;28;20025;-51
2022/09/04 07:04:26;;;;;;;10.32;6.90;;;17.20;99.90;;;;;;5071668;28;20020;-45
2022/09/04 07:07:01;;;;;;;7.32;6.18;;;17.20;99.90;;;;;;5071955;28;20071;-49
2022/09/04 07:09:40;;;;;;;7.85;6.15;;;17.30;99.90;;;;;;5072023;28;20372;-45
2022/09/04 07:12:36;;;;;;;8.85;6.15;;;17.30;99.90;;;;;;5071786;28;20063;-42
2022/09/04 07:15:27;;;;;;;5.63;5.13;;;17.40;99.90;;;;;;5071875;28;20448;-42
2022/09/04 07:18:11;;;;;;;5.80;5.30;;;17.40;99.90;;;;;;5071591;28;20074;-42
2022/09/04 07:20:54;;;;;;;7.90;5.68;;;17.50;99.90;;;;;;5071715;28;20392;-46
2022/09/04 07:24:02;;;;;;;6.93;5.90;;;17.60;99.90;;;;;;5071474;28;20021;-48
2022/09/04 07:26:50;;;;;;;10.77;7.63;;;17.70;99.90;;;;;;5071602;28;20565;-47
2022/09/04 07:29:33;;;;;;;11.38;7.40;;;17.80;99.90;;;;;;5053216;28;20035;-49
2022/09/04 07:32:09;;;;;;;10.60;6.72;;;17.80;99.90;;;;;;5071419;28;20433;-48
2022/09/04 07:35:20;;;;;;;9.52;6.15;;;17.90;99.90;;;;;;5071508;28;20021;-46
2022/09/04 07:38:07;;;;;;;12.88;8.30;;;18.00;99.90;;;;;;5051042;28;20024;-46
2022/09/04 07:40:42;;;;;;;12.23;8.20;;;18.10;99.90;;;;;;5071608;28;20024;-46
2022/09/04 07:43:26;;;;;;;;;;;18.10;99.90;;;;;;5053580;28;20016;-46
2022/09/04 07:46:04;;;;;;;19.65;10.55;;;18.10;99.90;;;;;;5071597;28;19911;-45
2022/09/04 07:48:33;;;;;;;19.20;11.50;;;18.20;99.90;;;;;;5071298;28;20066;-44
2022/09/04 07:51:12;;;;;;;17.63;10.30;;;18.10;99.90;;;;;;5071424;28;20029;-45
2022/09/04 07:53:57;;;;;;;18.10;11.43;;;18.20;99.90;;;;;;5071276;28;20105;-44
2022/09/04 07:56:46;;;;;;;17.08;11.10;;;18.20;99.90;;;;;;5071472;28;20032;-49
2022/09/04 07:59:46;;;;;;;18.92;11.35;;;18.20;99.90;;;;;;5071403;28;20025;-47
2022/09/04 08:02:27;;;;;;;18.58;12.55;;;18.20;99.90;;;;;;5071049;28;20495;-45
2022/09/04 08:05:29;;;;;;;19.13;10.85;;;18.20;99.90;;;;;;5071402;28;20024;-45
2022/09/04 08:08:21;;;;;;;17.40;11.15;;;18.30;99.90;;;;;;5070986;28;20028;-46
2022/09/04 08:11:25;;;;;;;20.42;13.68;;;18.30;99.90;;;;;;5071352;28;20056;-44
2022/09/04 08:14:09;;;;;;;17.90;12.07;;;18.30;99.90;;;;;;5070844;28;20495;-44
2022/09/04 08:16:43;;;;;;;21.67;13.13;;;18.30;99.90;;;;;;5071021;28;20549;-45
2022/09/04 08:19:55;;;;;;;23.88;12.98;;;18.30;99.90;;;;;;5070908;28;20063;-46
2022/09/04 08:22:54;;;;;;;17.63;11.85;;;18.30;99.90;;;;;;5019713;28;20507;-45
2022/09/04 08:25:51;;;;;;;15.38;11.65;;;18.40;99.90;;;;;;5039304;28;20075;-48
2022/09/04 08:28:56;;;;;;;16.45;11.80;;;18.50;99.90;;;;;;5070987;28;20111;-47
2022/09/04 08:31:24;;;;;;;15.73;11.20;;;18.50;99.90;;;;;;5071057;28;20102;-47
2022/09/04 08:33:58;;;;;;;20.58;12.43;;;18.60;99.90;;;;;;5070505;28;20025;-47
2022/09/04 08:36:42;;;;;;;19.38;13.70;;;18.70;99.90;;;;;;5071065;28;20125;-45
2022/09/04 08:39:26;;;;;;;17.63;12.90;;;18.70;99.90;;;;;;5071201;28;20441;-50
2022/09/04 08:42:20;;;;;;;19.75;13.68;;;18.70;99.90;;;;;;5072678;28;20081;-42
2022/09/04 08:45:22;;;;;;;20.25;13.15;;;18.70;99.90;;;;;;5074574;28;20077;-48
2022/09/04 08:48:14;;;;;;;20.70;13.30;;;18.70;99.90;;;;;;5074872;28;20039;-40
2022/09/04 08:51:18;;;;;;;20.52;13.20;;;18.70;99.90;;;;;;5071622;28;20036;-40
2022/09/04 08:54:19;;;;;;;21.73;14.43;;;18.70;99.90;;;;;;5074120;28;20052;-47
2022/09/04 08:57:01;;;;;;;22.48;15.00;;;18.70;99.90;;;;;;5074662;28;20543;-46
2022/09/04 08:59:33;;;;;;;19.63;14.45;;;18.70;99.90;;;;;;5073807;28;20025;-45
2022/09/04 09:02:47;;;;;;;26.38;15.73;;;18.80;99.90;;;;;;5074228;28;20158;-46
2022/09/04 09:05:43;;;;;;;22.15;14.18;;;18.80;99.90;;;;;;5027569;28;20033;-46
2022/09/04 09:08:14;;;;;;;;;;;18.70;99.90;;;;;;5074418;28;20024;-47
2022/09/04 09:10:52;;;;;;;23.65;14.93;;;18.70;99.90;;;;;;5075220;28;19904;-49
2022/09/04 09:13:35;;;;;;;21.00;15.15;;;18.70;99.90;;;;;;5074621;28;20020;-44
2022/09/04 09:16:11;;;;;;;22.00;14.85;;;18.70;99.90;;;;;;5075079;28;20028;-40
2022/09/04 09:18:47;;;;;;;20.25;14.32;;;18.80;99.90;;;;;;5074200;28;20174;-42
2022/09/04 09:21:24;;;;;;;22.20;16.73;;;18.80;99.90;;;;;;5074067;28;20031;-47
2022/09/04 09:24:14;;;;;;;20.27;14.95;;;19.00;99.90;;;;;;5073642;28;20032;-45
2022/09/04 09:27:04;;;;;;;21.83;15.30;;;19.00;99.90;;;;;;5073453;28;20078;-45
2022/09/04 09:29:50;;;;;;;22.23;16.23;;;19.00;99.90;;;;;;5074319;28;20078;-45
2022/09/04 09:33:09;;;;;;;21.08;15.32;;;19.00;99.90;;;;;;5073479;28;20024;-46
2022/09/04 09:36:13;;;;;;;20.33;15.93;;;19.10;99.90;;;;;;5011205;28;20567;-46
2022/09/04 09:38:57;;;;;;;20.13;15.30;;;19.10;99.90;;;;;;5011332;28;20405;-40
2022/09/04 09:41:37;;;;;;;18.83;14.55;;;19.10;99.90;;;;;;5063660;28;20043;-45
2022/09/04 09:44:41;;;;;;;21.17;15.63;;;19.20;99.90;;;;;;5072981;28;20027;-47
2022/09/04 09:47:44;;;;;;;21.63;16.38;;;19.30;99.90;;;;;;5073175;28;20372;-46
2022/09/04 09:50:28;;;;;;;20.88;15.82;;;19.30;99.90;;;;;;5073353;28;20017;-45
2022/09/04 09:53:16;;;;;;;18.50;12.60;;;19.30;99.90;;;;;;5072596;28;20029;-46
2022/09/04 09:56:02;;;;;;;22.77;15.30;;;19.30;99.90;;;;;;5062397;22;20412;-47
2022/09/04 09:58:49;;;;;;;17.95;14.68;;;19.40;99.90;;;;;;5071828;28;20016;-47
2022/09/04 10:01:43;;;;;;;21.17;14.98;;;19.60;99.90;;;;;;5072669;28;20029;-48
2022/09/04 10:04:52;;;;;;;16.58;14.35;;;19.70;99.90;;;;;;5072760;28;20100;-46
2022/09/04 10:08:01;;;;;;;19.77;15.10;;;19.80;99.90;;;;;;5072698;28;20476;-44
2022/09/04 10:10:52;;;;;;;21.05;14.43;;;20.00;99.90;;;;;;5056984;28;20488;-44
2022/09/04 10:13:42;;;;;;;18.77;13.95;;;20.20;99.90;;;;;;5072788;28;20524;-46
2022/09/04 10:16:46;;;;;;;17.98;13.43;;;20.30;99.90;;;;;;5072848;28;20016;-44
2022/09/04 10:19:34;;;;;;;15.35;12.70;;;20.50;99.90;;;;;;5053971;28;20429;-47
2022/09/04 10:22:19;;;;;;;16.67;12.45;;;20.90;99.90;;;;;;5072298;28;20023;-45
2022/09/04 10:25:18;;;;;;;14.02;11.50;;;21.20;99.90;;;;;;5072541;28;20020;-45
2022/09/04 10:27:55;;;;;;;14.77;11.32;;;21.40;99.90;;;;;;5054713;28;20029;-46
2022/09/04 10:30:22;;;;;;;12.77;11.35;;;21.60;99.90;;;;;;5072098;28;20028;-45
2022/09/04 10:33:20;;;;;;;15.15;10.57;;;21.80;99.90;;;;;;5072049;28;20021;-48
2022/09/04 10:36:05;;;;;;;11.85;9.82;;;21.90;99.90;;;;;;5072258;28;20104;-47
2022/09/04 10:41:48;;;;;;;10.77;9.18;;;22.30;99.90;;;;;;5072446;28;20043;-46
2022/09/04 10:44:56;;;;;;;11.80;9.85;;;22.30;99.90;;;;;;5071714;28;20541;-46
2022/09/04 10:47:31;;;;;;;10.50;9.43;;;22.30;99.90;;;;;;5071784;28;20017;-46
2022/09/04 10:50:06;;;;;;;11.27;9.40;;;22.30;99.90;;;;;;5071730;28;20024;-46
2022/09/04 10:53:00;;;;;;;12.93;10.00;;;22.30;99.90;;;;;;5053662;28;20495;-46
2022/09/04 10:55:58;;;;;;;10.00;8.93;;;22.30;99.90;;;;;;5071287;28;20103;-46
2022/09/04 10:58:43;;;;;;;12.15;9.90;;;22.30;99.90;;;;;;5071326;28;20024;-46
2022/09/04 11:01:29;;;;;;;12.35;9.27;;;22.20;99.90;;;;;;5071641;28;20046;-45
2022/09/04 11:04:30;;;;;;;12.90;11.23;;;22.30;99.90;;;;;;5070734;28;20042;-46
2022/09/04 11:07:13;;;;;;;12.02;10.32;;;22.30;99.90;;;;;;5071291;28;20107;-44
2022/09/04 11:09:42;;;;;;;12.65;11.35;;;22.40;99.90;;;;;;5071290;28;20094;-45
2022/09/04 11:12:47;;;;;;;10.02;9.07;;;22.30;99.90;;;;;;5071401;28;20036;-44
2022/09/04 11:15:46;;;;;;;12.38;10.98;;;22.20;99.90;;;;;;5071718;28;20024;-44
2022/09/04 11:18:30;;;;;;;15.77;11.63;;;22.20;99.90;;;;;;5041191;28;20040;-42
2022/09/04 11:21:14;;;;;;;13.85;11.60;;;22.00;99.90;;;;;;5072414;28;20024;-45
2022/09/04 11:24:01;;;;;;;14.40;11.50;;;21.90;99.90;;;;;;5071018;28;20013;-42
2022/09/04 11:27:06;;;;;;;12.60;11.27;;;21.80;99.90;;;;;;5071403;28;20028;-41
2022/09/04 11:30:02;;;;;;;13.65;12.23;;;21.80;99.90;;;;;;5071385;28;20028;-43
2022/09/04 11:32:47;;;;;;;11.75;10.05;;;21.80;99.90;;;;;;5070944;28;20029;-44
2022/09/04 11:35:35;;;;;;;10.15;9.15;;;21.80;99.90;;;;;;5071256;28;20496;-45
2022/09/04 11:38:27;;;;;;;13.88;10.55;;;21.90;99.90;;;;;;5071208;28;20090;-44
2022/09/04 11:41:23;;;;;;;11.63;10.43;;;22.10;99.90;;;;;;5071188;28;20027;-42
2022/09/04 11:43:55;;;;;;;11.35;9.77;;;22.00;99.90;;;;;;5071247;28;20029;-43
2022/09/04 11:46:49;;;;;;;10.50;8.75;;;22.10;99.90;;;;;;5070982;28;20016;-48
2022/09/04 11:49:56;;;;;;;10.88;7.60;;;22.10;99.90;;;;;;5070813;28;20500;-45
2022/09/04 11:52:25;;;;;;;8.32;7.20;;;22.10;99.90;;;;;;5052932;28;20400;-42
2022/09/04 11:55:17;;;;;;;8.95;7.93;;;22.20;99.90;;;;;;5071088;28;20388;-47
2022/09/04 11:57:54;;;;;;;8.23;7.43;;;22.20;99.90;;;;;;5070441;28;20537;-42
2022/09/04 12:00:20;;;;;;;9.05;8.13;;;22.20;99.90;;;;;;5071048;28;20401;-45
2022/09/04 12:03:03;;;;;;;10.30;7.97;;;22.20;99.90;;;;;;5070882;28;20025;-44
2022/09/04 12:05:50;;;;;;;10.93;7.70;;;22.20;99.90;;;;;;5070616;28;20032;-45
2022/09/04 12:08:50;;;;;;;9.85;6.93;;;22.20;99.90;;;;;;5071180;28;20021;-43
2022/09/04 12:11:33;;;;;;;5.78;5.18;;;22.20;99.90;;;;;;5071984;28;20025;-46
2022/09/04 12:14:19;;;;;;;5.60;5.07;;;22.30;99.90;;;;;;5071382;28;20021;-42
2022/09/04 12:17:00;;;;;;;4.97;4.57;;;22.40;99.90;;;;;;5074353;28;20031;-44
2022/09/04 12:19:45;;;;;;;5.82;3.95;;;22.50;99.90;;;;;;5074629;28;20028;-44
2022/09/04 12:22:35;;;;;;;4.07;3.53;;;22.50;99.90;;;;;;5074578;28;20028;-45
2022/09/04 12:25:09;;;;;;;5.30;3.20;;;22.50;99.90;;;;;;5074952;28;20408;-43
2022/09/04 12:27:58;;;;;;;3.00;2.70;;;22.60;99.90;;;;;;5074732;28;20486;-43
2022/09/04 12:30:49;;;;;;;3.67;3.38;;;22.80;99.90;;;;;;5076037;28;20059;-43
2022/09/04 12:33:32;;;;;;;3.28;2.95;;;22.80;99.90;;;;;;5074482;28;20029;-45
2022/09/04 12:36:24;;;;;;;3.50;2.70;;;23.00;99.90;;;;;;5074737;28;20025;-45
2022/09/04 12:38:54;;;;;;;3.10;2.88;;;23.00;99.90;;;;;;5074300;28;20039;-47
2022/09/04 12:41:46;;;;;;;2.60;2.40;;;23.00;99.90;;;;;;5074187;28;20028;-46
2022/09/04 12:44:22;;;;;;;2.75;2.55;;;23.10;99.90;;;;;;5074345;28;20165;-48
2022/09/04 12:46:56;;;;;;;3.08;2.83;;;23.20;99.90;;;;;;5074284;28;20025;-47
2022/09/04 12:50:08;;;;;;;3.88;3.10;;;23.30;99.90;;;;;;5074338;28;20118;-42
2022/09/04 12:53:03;;;;;;;2.90;2.60;;;23.40;99.90;;;;;;5070959;28;20468;-44
2022/09/04 12:55:44;;;;;;;1.50;1.40;;;23.40;99.90;;;;;;5002288;28;20049;-43
2022/09/04 12:58:32;;;;;;;5.13;1.70;;;23.40;99.90;;;;;;5074331;28;20025;-45
2022/09/04 13:01:12;;;;;;;1.90;1.75;;;23.50;99.90;;;;;;5073951;28;20035;-44
2022/09/04 13:04:05;;;;;;;3.50;2.75;;;23.60;99.90;;;;;;5073700;28;20090;-44
2022/09/04 13:07:08;;;;;;;1.95;1.85;;;23.70;99.90;;;;;;5074112;28;20020;-45
2022/09/04 13:09:51;;;;;;;2.20;2.10;;;23.60;99.90;;;;;;5073925;28;20075;-44
2022/09/04 13:12:45;;;;;;;2.78;2.25;;;23.80;99.90;;;;;;5073354;28;20069;-43
2022/09/04 13:15:31;;;;;;;3.38;2.42;;;23.70;99.90;;;;;;5073898;28;20035;-43
2022/09/04 13:18:23;;;;;;;2.13;2.03;;;23.80;99.90;;;;;;5073974;28;20112;-46
2022/09/04 13:21:09;;;;;;;1.90;1.80;;;23.90;99.90;;;;;;5074048;28;20058;-45
2022/09/04 13:23:59;;;;;;;2.30;2.20;;;24.00;99.90;;;;;;5073662;28;20048;-43
2022/09/04 13:26:59;;;;;;;2.53;2.33;;;24.00;99.90;;;;;;5073227;28;20036;-45
2022/09/04 13:29:39;;;;;;;2.25;2.05;;;24.00;99.90;;;;;;5073492;28;20048;-46
2022/09/04 13:32:37;;;;;;;2.85;2.13;;;24.00;99.90;;;;;;5073355;28;20373;-47
2022/09/04 13:35:13;;;;;;;2.95;2.75;;;24.00;99.90;;;;;;5055714;28;20158;-44
2022/09/04 13:38:04;;;;;;;2.28;2.17;;;24.10;99.90;;;;;;5073806;28;20029;-44
2022/09/04 13:40:41;;;;;;;3.67;2.33;;;24.10;99.90;;;;;;5073465;28;20079;-47
2022/09/04 13:43:30;;;;;;;2.38;2.20;;;24.10;99.90;;;;;;5073584;28;20024;-46
2022/09/04 13:46:00;;;;;;;2.10;2.00;;;24.20;99.90;;;;;;5073510;28;20025;-50
2022/09/04 13:48:44;;;;;;;1.83;1.73;;;24.20;99.90;;;;;;5073229;28;20050;-43
2022/09/04 13:51:18;;;;;;;1.98;1.85;;;24.20;99.90;;;;;;5073543;28;20059;-45
2022/09/04 13:54:14;;;;;;;1.92;1.83;;;24.20;99.90;;;;;;5072819;28;20029;-45
2022/09/04 13:56:55;;;;;;;2.25;2.05;;;24.40;99.90;;;;;;5073279;28;20123;-45
2022/09/04 13:59:21;;;;;;;1.70;1.60;;;24.40;99.90;;;;;;5072629;28;20023;-47
2022/09/04 14:01:53;;;;;;;1.80;1.70;;;24.30;99.40;;;;;;5072649;28;20051;-40
2022/09/04 14:04:39;;;;;;;3.15;2.03;;;24.40;99.70;;;;;;5054777;28;20025;-47
2022/09/04 14:07:17;;;;;;;2.03;1.92;;;24.50;99.80;;;;;;5072708;28;20051;-41
2022/09/04 14:09:46;;;;;;;3.13;2.08;;;24.50;99.80;;;;;;5072406;28;20111;-46
2022/09/04 14:12:29;;;;;;;2.13;1.92;;;24.40;99.60;;;;;;5072313;28;20027;-46
2022/09/04 14:15:19;;;;;;;2.25;2.15;;;24.50;99.90;;;;;;5072690;28;20447;-44
2022/09/04 14:18:36;;;;;;;2.45;2.25;;;24.50;99.90;;;;;;5072434;28;20044;-44